createdAt,value
2017-12-22T00:00:46.270Z,9.50
2017-12-22T00:03:13.746Z,11.00
2017-12-22T00:05:41.252Z,12.83
2017-12-22T00:08:08.730Z,8.80
2017-12-22T00:10:36.208Z,11.70
2017-12-22T00:13:03.728Z,14.00
2017-12-22T00:15:31.220Z,10.13
2017-12-22T00:17:58.948Z,9.93
2017-12-22T00:20:26.446Z,10.80
2017-12-22T00:22:53.998Z,10.70
2017-12-22T00:25:21.479Z,10.30
2017-12-22T00:27:48.974Z,11.10
2017-12-22T00:30:16.479Z,10.00
2017-12-22T00:32:43.947Z,9.50
2017-12-22T00:35:11.483Z,11.13
2017-12-22T00:37:38.953Z,8.10
2017-12-22T00:40:06.441Z,10.17
2017-12-22T00:42:34.686Z,12.67
2017-12-22T00:45:02.157Z,10.47
2017-12-22T00:47:29.755Z,8.87
2017-12-22T00:49:57.238Z,9.90
2017-12-22T00:52:24.721Z,11.07
2017-12-22T00:54:52.211Z,10.77
2017-12-22T00:57:20.486Z,11.23
2017-12-22T00:59:48.756Z,10.53
2017-12-22T01:02:16.226Z,10.60
2017-12-22T01:04:44.492Z,10.20
2017-12-22T01:07:11.976Z,12.10
2017-12-22T01:09:39.456Z,12.50
2017-12-22T01:12:06.962Z,13.20
2017-12-22T01:14:34.442Z,13.80
2017-12-22T01:17:08.292Z,14.07
2017-12-22T01:19:35.769Z,16.87
2017-12-22T01:22:03.259Z,17.70
2017-12-22T01:24:31.513Z,17.47
2017-12-22T01:26:58.991Z,16.10
2017-12-22T01:29:27.261Z,15.80
2017-12-22T01:31:55.523Z,16.33
2017-12-22T01:34:22.999Z,13.67
2017-12-22T01:36:51.239Z,13.80
2017-12-22T01:39:18.731Z,13.80
2017-12-22T01:41:46.975Z,15.20
2017-12-22T01:44:15.283Z,14.77
2017-12-22T01:46:43.534Z,14.57
2017-12-22T01:49:12.054Z,15.10
2017-12-22T01:51:40.293Z,16.00
2017-12-22T01:54:07.777Z,14.57
2017-12-22T01:56:36.026Z,14.77
2017-12-22T01:59:03.506Z,15.47
2017-12-22T02:01:31.384Z,11.10
2017-12-22T02:03:59.914Z,14.93
2017-12-22T02:06:27.386Z,13.87
2017-12-22T02:08:54.873Z,14.60
2017-12-22T02:11:23.136Z,13.97
2017-12-22T02:13:50.622Z,16.27
2017-12-22T02:16:18.880Z,14.50
2017-12-22T02:18:46.445Z,16.03
2017-12-22T02:21:14.724Z,14.20
2017-12-22T02:23:42.981Z,14.80
2017-12-22T02:26:10.449Z,14.30
2017-12-22T02:28:37.963Z,14.60
2017-12-22T02:31:05.461Z,14.90
2017-12-22T02:33:32.939Z,16.77
2017-12-22T02:36:01.215Z,16.17
2017-12-22T02:38:29.463Z,12.90
2017-12-22T02:40:56.935Z,16.23
2017-12-22T02:43:25.222Z,16.87
2017-12-22T02:45:53.470Z,16.90
2017-12-22T02:48:20.952Z,15.63
2017-12-22T02:50:49.198Z,17.80
2017-12-22T02:53:16.688Z,18.93
2017-12-22T02:55:44.927Z,17.40
2017-12-22T02:58:12.426Z,21.33
2017-12-22T03:00:40.704Z,20.27
2017-12-22T03:03:08.945Z,20.53
2017-12-22T03:05:36.423Z,19.93
2017-12-22T03:08:03.913Z,19.90
2017-12-22T03:10:31.392Z,20.03
2017-12-22T03:12:58.872Z,19.67
2017-12-22T03:15:26.362Z,19.67
2017-12-22T03:17:53.838Z,20.07
2017-12-22T03:20:22.079Z,23.13
2017-12-22T03:22:49.617Z,20.67
2017-12-22T03:25:17.095Z,25.53
2017-12-22T03:27:44.681Z,24.97
2017-12-22T03:30:12.933Z,26.33
2017-12-22T03:32:41.919Z,26.03
2017-12-22T03:35:09.402Z,32.57
2017-12-22T03:37:37.655Z,26.90
2017-12-22T03:40:05.235Z,28.70
2017-12-22T03:42:32.823Z,27.00
2017-12-22T03:45:00.359Z,22.17
2017-12-22T03:47:28.602Z,23.30
2017-12-22T03:49:56.079Z,27.10
2017-12-22T03:52:23.566Z,25.83
2017-12-22T03:54:51.819Z,24.60
2017-12-22T03:57:19.294Z,25.80
2017-12-22T03:59:47.550Z,31.43
2017-12-22T04:02:15.024Z,26.97
2017-12-22T04:04:43.266Z,24.43
2017-12-22T04:07:10.818Z,24.03
2017-12-22T04:09:38.296Z,23.50
2017-12-22T04:12:05.773Z,25.50
2017-12-22T04:14:34.032Z,30.77
2017-12-22T04:17:02.343Z,27.00
2017-12-22T04:19:30.587Z,28.83
2017-12-22T04:21:58.835Z,27.73
2017-12-22T04:24:26.317Z,27.63
2017-12-22T04:26:53.793Z,29.63
2017-12-22T04:29:22.041Z,35.73
2017-12-22T04:31:49.523Z,33.97
2017-12-22T04:34:16.999Z,35.00
2017-12-22T04:36:45.287Z,38.40
2017-12-22T04:39:13.896Z,33.60
2017-12-22T04:41:41.371Z,33.90
2017-12-22T04:44:08.851Z,34.33
2017-12-22T04:46:37.847Z,34.07
2017-12-22T04:49:05.319Z,39.30
2017-12-22T04:51:33.580Z,39.10
2017-12-22T04:54:01.057Z,37.97
2017-12-22T04:56:29.305Z,42.30
2017-12-22T04:58:57.026Z,40.63
2017-12-22T05:01:24.498Z,47.70
2017-12-22T05:03:51.988Z,48.13
2017-12-22T05:06:19.470Z,37.13
2017-12-22T05:08:47.988Z,38.73
2017-12-22T05:11:15.508Z,39.10
2017-12-22T05:13:43.765Z,38.03
2017-12-22T05:16:11.340Z,35.30
2017-12-22T05:18:39.584Z,37.73
2017-12-22T05:21:07.080Z,34.00
2017-12-22T05:23:35.318Z,34.20
2017-12-22T05:26:02.803Z,37.50
2017-12-22T05:28:30.410Z,36.40
2017-12-22T05:30:58.995Z,33.93
2017-12-22T05:33:26.476Z,45.37
2017-12-22T05:35:53.963Z,44.43
2017-12-22T05:38:21.438Z,50.87
2017-12-22T05:40:49.688Z,47.77
2017-12-22T05:43:18.691Z,45.87
2017-12-22T05:45:46.167Z,61.33
2017-12-22T05:48:14.405Z,62.67
2017-12-22T05:50:41.891Z,54.77
2017-12-22T05:53:10.134Z,69.67
2017-12-22T05:55:37.617Z,55.90
2017-12-22T05:58:05.098Z,64.00
2017-12-22T06:00:33.360Z,64.03
2017-12-22T06:03:01.610Z,69.00
2017-12-22T06:05:29.102Z,64.07
2017-12-22T06:07:57.348Z,62.73
2017-12-22T06:10:24.884Z,64.07
2017-12-22T06:12:52.394Z,63.00
2017-12-22T06:15:20.666Z,61.20
2017-12-22T06:17:48.906Z,57.43
2017-12-22T06:20:16.455Z,50.60
2017-12-22T06:22:43.942Z,51.93
2017-12-22T06:25:11.420Z,61.87
2017-12-22T06:27:39.684Z,59.57
2017-12-22T06:30:07.274Z,49.30
2017-12-22T06:32:34.756Z,55.83
2017-12-22T06:35:02.331Z,49.30
2017-12-22T06:37:29.811Z,48.57
2017-12-22T06:39:57.441Z,43.13
2017-12-22T06:42:24.949Z,39.03
2017-12-22T06:44:53.193Z,39.87
2017-12-22T06:47:20.686Z,43.87
2017-12-22T06:49:48.943Z,39.77
2017-12-22T06:52:16.420Z,40.40
2017-12-22T06:54:44.667Z,45.60
2017-12-22T06:57:12.155Z,47.33
2017-12-22T06:59:40.398Z,36.77
2017-12-22T07:02:07.874Z,34.93
2017-12-22T07:04:35.452Z,37.30
2017-12-22T07:07:03.710Z,38.77
2017-12-22T07:09:31.194Z,37.70
2017-12-22T07:11:59.516Z,39.43
2017-12-22T07:14:27.058Z,41.33
2017-12-22T07:16:54.534Z,38.10
2017-12-22T07:19:22.024Z,34.37
2017-12-22T07:21:49.500Z,35.07
2017-12-22T07:24:17.808Z,33.43
2017-12-22T07:26:45.310Z,35.10
2017-12-22T07:29:12.789Z,36.10
2017-12-22T07:31:41.118Z,34.97
2017-12-22T07:34:08.603Z,35.03
2017-12-22T07:36:36.846Z,35.13
2017-12-22T07:39:04.331Z,39.63
2017-12-22T07:41:31.820Z,38.73
2017-12-22T07:44:00.063Z,36.70
2017-12-22T07:46:27.548Z,32.80
2017-12-22T07:48:55.883Z,41.43
2017-12-22T07:51:23.366Z,39.77
2017-12-22T07:53:50.847Z,41.33
2017-12-22T07:56:19.091Z,36.60
2017-12-22T07:58:46.570Z,38.80
2017-12-22T08:01:14.811Z,37.17
2017-12-22T08:03:42.302Z,38.90
2017-12-22T08:06:09.778Z,33.03
2017-12-22T08:08:38.014Z,33.10
2017-12-22T08:11:05.504Z,31.27
2017-12-22T08:13:33.774Z,33.47
2017-12-22T08:16:02.018Z,40.83
2017-12-22T08:18:29.508Z,39.87
2017-12-22T08:20:56.986Z,37.40
2017-12-22T08:23:25.236Z,37.40
2017-12-22T08:25:52.718Z,31.87
2017-12-22T08:28:20.957Z,38.00
2017-12-22T08:30:48.436Z,34.07
2017-12-22T08:33:15.924Z,35.07
2017-12-22T08:35:43.415Z,36.93
2017-12-22T08:38:10.896Z,39.47
2017-12-22T08:40:38.392Z,31.07
2017-12-22T08:43:05.869Z,37.47
2017-12-22T08:45:33.347Z,35.43
2017-12-22T08:48:00.882Z,37.13
2017-12-22T08:50:28.359Z,37.23
2017-12-22T08:52:55.831Z,37.27
2017-12-22T08:55:23.335Z,36.20
2017-12-22T08:57:51.587Z,32.30
2017-12-22T09:00:19.058Z,30.33
2017-12-22T09:02:47.311Z,34.23
2017-12-22T09:05:14.802Z,30.93
2017-12-22T09:07:43.434Z,31.67
2017-12-22T09:10:10.927Z,35.20
2017-12-22T09:12:39.163Z,33.23
2017-12-22T09:15:06.766Z,31.03
2017-12-22T09:17:35.102Z,30.27
2017-12-22T09:20:02.659Z,27.67
2017-12-22T09:22:30.167Z,28.60
2017-12-22T09:24:58.426Z,33.60
2017-12-22T09:27:25.904Z,28.33
2017-12-22T09:29:54.174Z,32.70
2017-12-22T09:32:22.430Z,31.90
2017-12-22T09:34:49.909Z,29.83
2017-12-22T09:37:18.158Z,30.40
2017-12-22T09:39:45.891Z,27.90
2017-12-22T09:42:13.361Z,29.40
2017-12-22T09:44:40.847Z,26.90
2017-12-22T09:47:09.121Z,22.70
2017-12-22T09:49:36.594Z,25.33
2017-12-22T09:52:04.065Z,26.90
2017-12-22T09:54:32.323Z,26.27
2017-12-22T09:57:02.042Z,27.37
2017-12-22T09:59:29.519Z,28.97
2017-12-22T10:01:58.717Z,29.13
2017-12-22T10:04:26.955Z,27.63
2017-12-22T10:06:54.539Z,30.17
2017-12-22T10:09:22.814Z,29.43
2017-12-22T10:11:51.114Z,29.27
2017-12-22T10:14:18.650Z,26.13
2017-12-22T10:16:46.904Z,26.97
2017-12-22T10:19:15.148Z,32.17
2017-12-22T10:21:42.626Z,26.93
2017-12-22T10:24:10.240Z,24.90
2017-12-22T10:26:38.482Z,28.57
2017-12-22T10:29:05.963Z,25.00
2017-12-22T10:31:34.281Z,21.70
2017-12-22T10:34:02.497Z,30.43
2017-12-22T10:36:29.998Z,22.03
2017-12-22T10:38:57.532Z,24.87
2017-12-22T10:41:25.776Z,21.67
2017-12-22T10:43:53.260Z,21.43
2017-12-22T10:46:21.618Z,22.90
2017-12-22T10:48:49.263Z,24.43
2017-12-22T10:51:16.808Z,22.23
2017-12-22T10:53:44.289Z,22.77
2017-12-22T10:56:11.765Z,25.60
2017-12-22T10:58:39.241Z,22.90
2017-12-22T11:01:07.499Z,21.13
2017-12-22T11:03:34.971Z,22.50
2017-12-22T11:06:03.215Z,19.17
2017-12-22T11:08:30.695Z,26.50
2017-12-22T11:10:58.167Z,22.40
2017-12-22T11:13:26.434Z,22.00
2017-12-22T11:15:53.918Z,21.00
2017-12-22T11:18:21.398Z,27.60
2017-12-22T11:20:48.874Z,22.83
2017-12-22T11:23:16.470Z,23.40
2017-12-22T11:25:44.714Z,21.00
2017-12-22T11:28:12.198Z,24.63
2017-12-22T11:30:39.686Z,23.93
2017-12-22T11:33:07.162Z,22.37
2017-12-22T11:35:34.680Z,22.90
2017-12-22T11:38:02.944Z,22.90
2017-12-22T11:40:31.186Z,26.17
2017-12-22T11:42:58.657Z,28.17
2017-12-22T11:45:26.149Z,25.47
2017-12-22T11:47:54.399Z,24.50
2017-12-22T11:50:21.874Z,25.00
2017-12-22T11:52:49.357Z,24.80
2017-12-22T11:55:16.841Z,21.83
2017-12-22T11:57:44.923Z,24.83
2017-12-22T12:00:12.435Z,25.10
2017-12-22T12:02:41.529Z,25.03
2017-12-22T12:05:09.803Z,26.30
2017-12-22T12:07:38.767Z,23.50
2017-12-22T12:10:06.243Z,23.20
2017-12-22T12:12:34.443Z,22.60
2017-12-22T12:15:02.692Z,25.40
2017-12-22T12:17:30.171Z,23.53
2017-12-22T12:19:58.413Z,22.70
2017-12-22T12:22:25.906Z,25.23
2017-12-22T12:24:54.146Z,32.00
2017-12-22T12:27:22.782Z,22.60
2017-12-22T12:29:50.324Z,23.10
2017-12-22T12:32:18.570Z,28.00
2017-12-22T12:34:46.160Z,25.17
2017-12-22T12:37:14.418Z,25.37
2017-12-22T12:39:41.904Z,29.87
2017-12-22T12:42:10.151Z,29.93
2017-12-22T12:44:37.642Z,23.37
2017-12-22T12:47:05.231Z,25.10
2017-12-22T12:49:32.711Z,26.00
2017-12-22T12:52:00.196Z,26.20
2017-12-22T12:54:27.679Z,23.80
2017-12-22T12:56:55.151Z,26.17
2017-12-22T12:59:22.647Z,24.63
2017-12-22T13:01:50.125Z,20.23
2017-12-22T13:04:18.371Z,24.60
2017-12-22T13:06:45.873Z,21.10
2017-12-22T13:09:14.171Z,21.83
2017-12-22T13:11:41.653Z,20.40
2017-12-22T13:14:09.155Z,21.17
2017-12-22T13:16:37.402Z,18.20
2017-12-22T13:19:04.979Z,22.83
2017-12-22T13:21:32.501Z,17.13
2017-12-22T13:24:00.058Z,18.10
2017-12-22T13:26:27.543Z,21.97
2017-12-22T13:28:55.135Z,20.37
2017-12-22T13:31:23.378Z,20.13
2017-12-22T13:33:50.860Z,21.57
2017-12-22T13:36:18.350Z,20.90
2017-12-22T13:38:45.886Z,21.53
2017-12-22T13:41:14.253Z,19.27
2017-12-22T13:43:41.746Z,19.97
2017-12-22T13:46:09.240Z,20.40
2017-12-22T13:48:36.730Z,19.90
2017-12-22T13:51:04.298Z,16.70
2017-12-22T13:53:32.543Z,16.47
2017-12-22T13:56:00.014Z,16.97
2017-12-22T13:58:27.497Z,16.63
2017-12-22T14:00:55.744Z,16.57
2017-12-22T14:03:23.227Z,18.53
2017-12-22T14:05:51.483Z,19.13
2017-12-22T14:08:18.971Z,18.80
2017-12-22T14:10:47.217Z,20.43
2017-12-22T14:13:14.765Z,17.53
2017-12-22T14:15:42.237Z,19.63
2017-12-22T14:18:09.715Z,20.50
2017-12-22T14:20:37.975Z,14.67
2017-12-22T14:23:05.793Z,20.13
2017-12-22T14:25:33.270Z,17.30
2017-12-22T14:28:00.774Z,15.20
2017-12-22T14:30:29.006Z,16.30
2017-12-22T14:32:56.482Z,24.87
2017-12-22T14:35:23.974Z,18.23
2017-12-22T14:37:52.209Z,17.40
2017-12-22T14:40:19.692Z,17.20
2017-12-22T14:42:47.178Z,18.40
2017-12-22T14:45:14.730Z,17.40
2017-12-22T14:47:42.206Z,16.97
2017-12-22T14:50:09.699Z,16.47
2017-12-22T14:52:37.190Z,14.67
2017-12-22T14:55:05.436Z,14.20
2017-12-22T14:57:32.928Z,16.60
2017-12-22T15:00:01.208Z,16.27
2017-12-22T15:02:29.455Z,15.20
2017-12-22T15:04:57.710Z,16.40
2017-12-22T15:07:25.196Z,14.00
2017-12-22T15:09:52.671Z,14.17
2017-12-22T15:12:20.943Z,13.40
2017-12-22T15:14:49.189Z,13.43
2017-12-22T15:17:16.872Z,13.90
2017-12-22T15:19:44.363Z,12.50
2017-12-22T15:22:11.838Z,13.70
2017-12-22T15:24:39.365Z,13.30
2017-12-22T15:27:07.628Z,12.90
2017-12-22T15:29:35.110Z,14.17
2017-12-22T15:32:02.589Z,12.30
2017-12-22T15:34:30.082Z,13.43
2017-12-22T15:36:57.558Z,11.80
2017-12-22T15:39:25.030Z,12.00
2017-12-22T15:41:53.292Z,13.37
2017-12-22T15:44:20.768Z,13.10
2017-12-22T15:46:49.094Z,13.73
2017-12-22T15:49:16.592Z,25.37
2017-12-22T15:51:44.840Z,13.10
2017-12-22T15:54:13.031Z,14.27
2017-12-22T15:56:40.518Z,13.53
2017-12-22T15:59:10.808Z,14.17
2017-12-22T16:01:38.291Z,11.50
2017-12-22T16:04:06.552Z,11.33
2017-12-22T16:06:34.119Z,13.47
2017-12-22T16:09:02.361Z,21.63
2017-12-22T16:11:29.855Z,16.57
2017-12-22T16:13:58.103Z,15.57
2017-12-22T16:16:25.582Z,18.70
2017-12-22T16:18:53.089Z,15.47
2017-12-22T16:21:20.671Z,14.10
2017-12-22T16:23:48.157Z,13.37
2017-12-22T16:26:15.643Z,13.33
2017-12-22T16:28:43.233Z,15.93
2017-12-22T16:31:10.734Z,15.73
2017-12-22T16:33:38.224Z,15.90
2017-12-22T16:36:05.708Z,14.70
2017-12-22T16:38:33.183Z,15.47
2017-12-22T16:41:00.670Z,16.20
2017-12-22T16:43:28.142Z,15.23
2017-12-22T16:45:56.384Z,14.53
2017-12-22T16:48:23.879Z,15.20
2017-12-22T16:50:52.136Z,15.60
2017-12-22T16:53:19.649Z,15.97
2017-12-22T16:55:47.142Z,15.60
2017-12-22T16:58:14.618Z,16.73
2017-12-22T17:00:42.864Z,15.93
2017-12-22T17:03:10.348Z,15.03
2017-12-22T17:05:37.823Z,21.97
2017-12-22T17:08:06.080Z,16.70
2017-12-22T17:10:33.575Z,14.50
2017-12-22T17:13:01.107Z,17.03
2017-12-22T17:15:29.347Z,16.67
2017-12-22T17:17:56.939Z,18.10
2017-12-22T17:20:25.183Z,16.80
2017-12-22T17:22:52.663Z,14.47
2017-12-22T17:25:20.155Z,16.13
2017-12-22T17:27:47.629Z,16.97
2017-12-22T17:30:15.115Z,17.70
2017-12-22T17:32:42.610Z,17.93
2017-12-22T17:35:10.846Z,17.87
2017-12-22T17:37:38.344Z,15.97
2017-12-22T17:40:06.599Z,14.97
2017-12-22T17:42:34.090Z,15.67
2017-12-22T17:45:02.336Z,20.73
2017-12-22T17:47:31.340Z,15.40
2017-12-22T17:49:58.810Z,14.63
2017-12-22T17:52:27.060Z,14.90
2017-12-22T17:54:54.552Z,12.97
2017-12-22T17:57:22.888Z,13.70
2017-12-22T17:59:50.362Z,17.27
2017-12-22T18:02:17.851Z,16.80
2017-12-22T18:04:45.335Z,15.13
2017-12-22T18:07:12.849Z,18.10
2017-12-22T18:09:41.103Z,15.20
2017-12-22T18:12:08.603Z,14.40
2017-12-22T18:14:36.080Z,18.67
2017-12-22T18:17:03.571Z,15.77
2017-12-22T18:19:31.047Z,16.23
2017-12-22T18:21:58.528Z,43.83
2017-12-22T18:24:26.786Z,25.80
2017-12-22T18:26:55.031Z,31.37
2017-12-22T18:29:22.554Z,14.47
2017-12-22T18:31:50.035Z,20.10
2017-12-22T18:34:17.557Z,14.33
2017-12-22T18:36:45.798Z,16.03
2017-12-22T18:39:13.286Z,19.03
2017-12-22T18:41:41.526Z,15.77
2017-12-22T18:44:09.020Z,14.27
2017-12-22T18:46:37.297Z,20.87
2017-12-22T18:49:04.790Z,19.33
2017-12-22T18:51:32.268Z,16.50
2017-12-22T18:53:59.760Z,19.13
2017-12-22T18:56:28.012Z,17.50
2017-12-22T18:58:55.528Z,17.73
2017-12-22T19:01:23.059Z,16.67
2017-12-22T19:03:51.334Z,17.80
2017-12-22T19:06:19.577Z,27.17
2017-12-22T19:08:47.271Z,19.57
2017-12-22T19:11:15.520Z,24.90
2017-12-22T19:13:43.043Z,18.70
2017-12-22T19:16:10.539Z,18.60
2017-12-22T19:18:38.087Z,18.10
2017-12-22T19:21:05.590Z,15.63
2017-12-22T19:23:33.843Z,16.63
2017-12-22T19:26:01.351Z,17.77
2017-12-22T19:28:28.835Z,14.40
2017-12-22T19:30:56.335Z,18.67
2017-12-22T19:33:24.574Z,16.90
2017-12-22T19:35:52.067Z,17.70
2017-12-22T19:38:20.591Z,16.83
2017-12-22T19:40:48.074Z,17.83
2017-12-22T19:43:15.555Z,19.47
2017-12-22T19:45:44.550Z,29.03
2017-12-22T19:48:12.123Z,22.50
2017-12-22T19:50:47.698Z,18.33
2017-12-22T19:53:15.512Z,18.23
2017-12-22T19:55:44.524Z,18.03
2017-12-22T19:58:12.022Z,19.80
2017-12-22T20:00:39.598Z,16.43
2017-12-22T20:03:19.122Z,17.00
2017-12-22T20:05:46.644Z,18.20
2017-12-22T20:08:14.892Z,15.53
2017-12-22T20:10:42.386Z,14.17
2017-12-22T20:13:10.697Z,14.07
2017-12-22T20:15:38.217Z,15.17
2017-12-22T20:18:06.781Z,14.53
2017-12-22T20:20:34.263Z,19.73
2017-12-22T20:23:02.599Z,137.10
2017-12-22T20:25:30.097Z,31.03
2017-12-22T20:27:58.347Z,19.20
2017-12-22T20:30:25.883Z,13.23
2017-12-22T20:32:53.383Z,14.43
2017-12-22T20:35:20.858Z,15.47
2017-12-22T20:37:49.101Z,19.00
2017-12-22T20:40:18.118Z,18.57
2017-12-22T20:42:46.358Z,15.63
2017-12-22T20:45:13.850Z,17.70
2017-12-22T20:47:42.130Z,17.47
2017-12-22T20:50:10.550Z,17.70
2017-12-22T20:52:38.048Z,17.13
2017-12-22T20:55:05.628Z,15.23
2017-12-22T20:57:33.874Z,14.40
2017-12-22T21:00:01.363Z,15.53
2017-12-22T21:02:29.892Z,26.00
2017-12-22T21:04:57.388Z,22.77
2017-12-22T21:07:24.873Z,18.87
2017-12-22T21:09:53.138Z,17.90
2017-12-22T21:12:21.422Z,20.67
2017-12-22T21:14:49.384Z,13.27
2017-12-22T21:17:17.695Z,15.20
2017-12-22T21:19:45.179Z,24.67
2017-12-22T21:22:12.653Z,17.17
2017-12-22T21:24:40.225Z,16.77
2017-12-22T21:27:07.735Z,26.10
2017-12-22T21:29:35.219Z,18.07
2017-12-22T21:32:02.745Z,50.90
2017-12-22T21:34:30.242Z,32.63
2017-12-22T21:36:57.731Z,18.70
2017-12-22T21:39:25.982Z,25.63
2017-12-22T21:41:53.458Z,24.10
2017-12-22T21:44:21.709Z,19.00
2017-12-22T21:46:49.212Z,19.20
2017-12-22T21:49:16.688Z,15.93
2017-12-22T21:51:44.343Z,15.40
2017-12-22T21:54:11.844Z,12.93
2017-12-22T21:56:39.330Z,13.23
2017-12-22T21:59:07.578Z,16.27
2017-12-22T22:01:35.076Z,15.23
2017-12-22T22:04:03.344Z,15.93
2017-12-22T22:06:31.591Z,13.90
2017-12-22T22:08:59.080Z,14.93
2017-12-22T22:11:27.357Z,14.20
2017-12-22T22:13:55.593Z,15.03
2017-12-22T22:16:23.079Z,15.57
2017-12-22T22:18:50.557Z,13.27
2017-12-22T22:21:18.819Z,15.03
2017-12-22T22:23:47.079Z,13.80
2017-12-22T22:26:14.689Z,15.70
2017-12-22T22:28:42.171Z,16.33
2017-12-22T22:31:09.684Z,14.67
2017-12-22T22:33:37.949Z,15.50
2017-12-22T22:36:06.195Z,22.13
2017-12-22T22:38:33.695Z,14.57
2017-12-22T22:41:01.231Z,17.17
2017-12-22T22:43:29.501Z,14.80
2017-12-22T22:45:57.009Z,16.70
2017-12-22T22:48:24.506Z,16.10
2017-12-22T22:50:51.989Z,21.13
2017-12-22T22:53:19.559Z,19.63
2017-12-22T22:55:47.882Z,17.80
2017-12-22T22:58:15.438Z,17.77
2017-12-22T23:00:42.928Z,16.27
2017-12-22T23:03:10.401Z,16.03
2017-12-22T23:05:38.644Z,17.30
2017-12-22T23:08:06.160Z,18.03
2017-12-22T23:10:33.737Z,20.13
2017-12-22T23:13:01.240Z,19.40
2017-12-22T23:15:28.822Z,21.13
2017-12-22T23:17:57.084Z,18.07
2017-12-22T23:20:24.597Z,21.00
2017-12-22T23:22:52.085Z,19.47
2017-12-22T23:25:19.827Z,21.20
2017-12-22T23:27:47.525Z,20.13
2017-12-22T23:30:15.096Z,19.87
2017-12-22T23:32:42.643Z,19.70
2017-12-22T23:35:10.902Z,18.63
2017-12-22T23:37:38.395Z,18.53
2017-12-22T23:40:06.651Z,17.40
2017-12-22T23:42:34.183Z,19.40
2017-12-22T23:45:01.673Z,19.23
2017-12-22T23:47:29.159Z,17.73
2017-12-22T23:49:57.408Z,18.60
2017-12-22T23:52:24.916Z,21.30
2017-12-22T23:54:53.162Z,23.43
2017-12-22T23:57:21.432Z,21.27
2017-12-22T23:59:48.966Z,22.27
